Time;durP1;ratioP1;P1;durP2;ratioP2;P2;SDS_P1;SDS_P2;PMS_P1;PMS_P2;Temp;Humidity;BMP_temperature;BMP_pressure;BME280_temperature;BME280_humidity;BME280_pressure;Samples;Min_cycle;Max_cycle;Signal;HPM_P1;HPM_P2
2023/08/08 00:02:19;;;;;;;10.70;5.10;;;;;;;;;;5040760;28;20873;-73
2023/08/08 00:04:46;;;;;;;7.00;4.10;;;;;;;;;;5040438;28;20478;-72
2023/08/08 00:07:12;;;;;;;8.43;4.70;;;;;;;;;;5039993;28;20533;-72
2023/08/08 00:09:38;;;;;;;8.20;4.30;;;;;;;;;;5040857;28;20470;-72
2023/08/08 00:12:07;;;;;;;6.00;4.83;;;;;;;;;;5040129;28;20500;-72
2023/08/08 00:14:33;;;;;;;11.13;5.23;;;;;;;;;;5040562;28;20481;-72
2023/08/08 00:16:59;;;;;;;8.13;5.27;;;;;;;;;;5037712;28;20474;-73
2023/08/08 00:19:26;;;;;;;8.13;5.47;;;;;;;;;;5031664;28;20489;-72
2023/08/08 00:21:52;;;;;;;9.13;5.20;;;;;;;;;;5039735;28;20504;-72
2023/08/08 00:24:18;;;;;;;9.00;5.70;;;;;;;;;;5040573;28;20481;-72
2023/08/08 00:26:45;;;;;;;6.67;5.70;;;;;;;;;;5039362;28;20454;-72
2023/08/08 00:29:13;;;;;;;9.13;5.40;;;;;;;;;;5038786;28;20492;-72
2023/08/08 00:31:39;;;;;;;9.30;6.07;;;;;;;;;;5037631;28;20481;-72
2023/08/08 00:34:05;;;;;;;9.47;6.37;;;;;;;;;;5035969;28;20477;-72
2023/08/08 00:36:32;;;;;;;9.27;6.20;;;;;;;;;;5039695;28;20482;-72
2023/08/08 00:38:58;;;;;;;9.23;6.33;;;;;;;;;;5040752;28;20457;-72
2023/08/08 00:41:25;;;;;;;8.30;6.47;;;;;;;;;;5040304;28;20500;-72
2023/08/08 00:43:51;;;;;;;9.37;6.10;;;;;;;;;;5040195;28;20508;-72
2023/08/08 00:46:21;;;;;;;9.17;5.80;;;;;;;;;;5040256;28;20467;-74
2023/08/08 00:48:47;;;;;;;11.63;6.80;;;;;;;;;;5040272;28;20541;-74
2023/08/08 00:51:14;;;;;;;9.80;6.97;;;;;;;;;;5040084;28;20452;-74
2023/08/08 00:53:40;;;;;;;12.30;6.77;;;;;;;;;;5039990;28;20457;-73
2023/08/08 00:56:07;;;;;;;9.43;6.57;;;;;;;;;;5040483;28;20481;-74
2023/08/08 00:58:33;;;;;;;9.80;7.40;;;;;;;;;;5040504;28;20457;-73
2023/08/08 01:01:00;;;;;;;6.97;5.30;;;;;;;;;;5039917;28;20934;-73
2023/08/08 01:03:29;;;;;;;11.03;6.27;;;;;;;;;;5040244;28;20838;-74
2023/08/08 01:05:59;;;;;;;8.50;5.90;;;;;;;;;;5039536;28;20468;-73
2023/08/08 01:08:28;;;;;;;6.87;4.77;;;;;;;;;;5040262;28;20540;-73
2023/08/08 01:10:54;;;;;;;7.57;5.37;;;;;;;;;;5040079;28;20576;-73
2023/08/08 01:13:22;;;;;;;13.00;6.00;;;;;;;;;;5039660;28;20958;-73
2023/08/08 01:15:49;;;;;;;8.00;5.17;;;;;;;;;;5038428;28;20500;-72
2023/08/08 01:18:16;;;;;;;8.23;5.10;;;;;;;;;;5037420;28;20521;-72
2023/08/08 01:20:45;;;;;;;6.27;5.10;;;;;;;;;;5039731;28;20446;-73
2023/08/08 01:23:13;;;;;;;9.40;5.00;;;;;;;;;;5039917;28;20468;-73
2023/08/08 01:25:41;;;;;;;9.83;4.70;;;;;;;;;;5038561;28;20489;-73
2023/08/08 01:28:08;;;;;;;6.07;4.20;;;;;;;;;;5039574;28;20484;-73
2023/08/08 01:30:34;;;;;;;6.53;5.23;;;;;;;;;;5037598;28;20537;-73
2023/08/08 01:33:01;;;;;;;6.30;4.80;;;;;;;;;;5035078;28;21212;-73
2023/08/08 01:35:29;;;;;;;11.33;5.33;;;;;;;;;;5039213;28;20462;-72
2023/08/08 01:38:00;;;;;;;5.20;4.37;;;;;;;;;;5035421;28;20468;-74
2023/08/08 01:40:28;;;;;;;6.10;4.30;;;;;;;;;;5038083;28;20521;-73
2023/08/08 01:42:56;;;;;;;6.20;3.93;;;;;;;;;;5040933;28;20545;-73
2023/08/08 01:45:24;;;;;;;5.87;3.70;;;;;;;;;;5028979;28;20588;-73
2023/08/08 01:47:51;;;;;;;5.93;4.70;;;;;;;;;;5034351;28;20465;-73
2023/08/08 01:50:17;;;;;;;8.03;4.77;;;;;;;;;;5040102;28;20461;-73
2023/08/08 01:52:44;;;;;;;5.80;4.00;;;;;;;;;;5042005;28;20485;-73
2023/08/08 01:55:11;;;;;;;4.70;4.10;;;;;;;;;;5038821;28;21349;-73
2023/08/08 01:57:37;;;;;;;5.70;4.27;;;;;;;;;;5043060;28;20539;-73
2023/08/08 02:00:06;;;;;;;5.37;4.33;;;;;;;;;;5042246;28;20462;-73
2023/08/08 02:02:32;;;;;;;4.33;3.73;;;;;;;;;;5042444;28;20458;-73
2023/08/08 02:04:59;;;;;;;5.90;3.27;;;;;;;;;;5042377;28;21121;-73
2023/08/08 02:07:25;;;;;;;6.47;4.23;;;;;;;;;;5041821;28;20549;-74
2023/08/08 02:09:52;;;;;;;6.77;4.40;;;;;;;;;;5032938;28;20492;-74
2023/08/08 02:12:18;;;;;;;6.00;4.10;;;;;;;;;;5038890;28;20909;-73
2023/08/08 02:14:44;;;;;;;5.57;3.73;;;;;;;;;;5036571;28;20549;-74
2023/08/08 02:17:12;;;;;;;4.23;3.60;;;;;;;;;;5035836;28;20551;-74
2023/08/08 02:19:38;;;;;;;8.60;3.90;;;;;;;;;;5036886;28;20469;-74
2023/08/08 02:22:05;;;;;;;7.90;3.90;;;;;;;;;;5040791;28;20557;-73
2023/08/08 02:24:31;;;;;;;5.33;3.67;;;;;;;;;;5042640;28;20529;-73
2023/08/08 02:26:58;;;;;;;5.60;3.33;;;;;;;;;;5042336;28;20504;-74
2023/08/08 02:29:24;;;;;;;3.63;2.80;;;;;;;;;;5040789;28;20450;-73
2023/08/08 02:31:50;;;;;;;6.57;4.47;;;;;;;;;;5042284;28;20469;-74
2023/08/08 02:34:18;;;;;;;4.53;3.40;;;;;;;;;;5042948;28;20473;-73
2023/08/08 02:36:45;;;;;;;7.40;3.90;;;;;;;;;;5041243;28;20827;-73
2023/08/08 02:39:11;;;;;;;7.17;3.30;;;;;;;;;;5036669;28;20665;-73
2023/08/08 02:41:38;;;;;;;3.90;3.20;;;;;;;;;;5041480;28;20486;-73
2023/08/08 02:44:04;;;;;;;4.27;3.47;;;;;;;;;;5042427;28;21040;-73
2023/08/08 02:46:30;;;;;;;3.80;2.93;;;;;;;;;;5041879;28;20492;-73
2023/08/08 02:48:57;;;;;;;5.50;4.10;;;;;;;;;;5042041;28;20496;-73
2023/08/08 02:51:25;;;;;;;5.57;2.97;;;;;;;;;;5041016;28;20489;-73
2023/08/08 02:53:51;;;;;;;4.00;2.77;;;;;;;;;;5041807;28;20528;-73
2023/08/08 02:56:17;;;;;;;4.67;3.27;;;;;;;;;;5036109;28;20963;-73
2023/08/08 02:58:44;;;;;;;6.23;3.50;;;;;;;;;;5036678;28;20530;-74
2023/08/08 03:01:13;;;;;;;4.60;2.73;;;;;;;;;;5042183;28;20533;-74
2023/08/08 03:03:39;;;;;;;3.73;2.90;;;;;;;;;;5041819;28;20555;-73
2023/08/08 03:06:06;;;;;;;3.90;3.10;;;;;;;;;;5041717;28;20521;-73
2023/08/08 03:08:34;;;;;;;6.10;3.43;;;;;;;;;;5041199;28;20925;-73
2023/08/08 03:11:00;;;;;;;4.60;3.07;;;;;;;;;;5040118;28;20545;-73
2023/08/08 03:13:29;;;;;;;4.00;3.17;;;;;;;;;;5041153;28;20508;-73
2023/08/08 03:15:57;;;;;;;4.30;3.17;;;;;;;;;;5041615;28;21249;-72
2023/08/08 03:18:24;;;;;;;4.30;2.97;;;;;;;;;;5041218;28;20492;-73
2023/08/08 03:20:50;;;;;;;5.97;3.40;;;;;;;;;;5041140;28;20458;-72
2023/08/08 03:23:17;;;;;;;5.10;3.60;;;;;;;;;;5038386;28;20532;-74
2023/08/08 03:25:45;;;;;;;3.47;2.70;;;;;;;;;;5041479;28;20547;-73
2023/08/08 03:28:11;;;;;;;4.20;3.63;;;;;;;;;;5037585;28;20531;-74
2023/08/08 03:30:38;;;;;;;7.23;3.90;;;;;;;;;;5036211;28;20525;-73
2023/08/08 03:33:04;;;;;;;5.90;4.00;;;;;;;;;;5041276;28;20462;-73
2023/08/08 03:35:31;;;;;;;3.70;3.27;;;;;;;;;;5040007;28;20503;-74
2023/08/08 03:37:57;;;;;;;6.50;4.40;;;;;;;;;;5028067;28;20531;-74
2023/08/08 03:40:23;;;;;;;4.87;4.37;;;;;;;;;;5041490;28;20494;-74
2023/08/08 03:42:52;;;;;;;4.73;4.20;;;;;;;;;;5032036;28;20496;-74
2023/08/08 03:45:18;;;;;;;7.20;4.50;;;;;;;;;;5040833;28;20564;-74
2023/08/08 03:47:44;;;;;;;6.23;4.87;;;;;;;;;;5040750;28;20521;-74
2023/08/08 03:50:12;;;;;;;6.47;5.60;;;;;;;;;;5040424;28;20453;-73
2023/08/08 03:52:38;;;;;;;9.47;5.03;;;;;;;;;;5036184;28;20453;-73
2023/08/08 03:55:05;;;;;;;9.23;6.00;;;;;;;;;;5037768;28;20446;-73
2023/08/08 03:57:31;;;;;;;7.63;5.77;;;;;;;;;;5035272;28;20446;-72
2023/08/08 03:59:59;;;;;;;10.73;7.20;;;;;;;;;;5030854;28;20458;-73
2023/08/08 04:02:28;;;;;;;10.50;7.13;;;;;;;;;;5039010;28;20492;-73
2023/08/08 04:04:54;;;;;;;8.10;7.20;;;;;;;;;;5035229;28;20478;-72
2023/08/08 04:07:21;;;;;;;10.47;7.63;;;;;;;;;;5039494;28;20568;-71
2023/08/08 04:09:47;;;;;;;8.87;8.00;;;;;;;;;;5031811;28;20533;-72
2023/08/08 04:12:14;;;;;;;10.53;8.17;;;;;;;;;;5037855;28;20497;-72
2023/08/08 04:14:40;;;;;;;11.17;8.23;;;;;;;;;;5039800;28;20607;-72
2023/08/08 04:17:08;;;;;;;9.50;7.33;;;;;;;;;;5038413;28;20526;-72
2023/08/08 04:19:34;;;;;;;8.40;7.30;;;;;;;;;;5029312;28;20620;-72
2023/08/08 04:22:01;;;;;;;11.57;8.10;;;;;;;;;;5040006;28;20488;-72
2023/08/08 04:24:27;;;;;;;9.30;8.10;;;;;;;;;;5038994;28;20545;-72
2023/08/08 04:26:53;;;;;;;12.30;7.63;;;;;;;;;;5039973;28;20537;-72
2023/08/08 04:29:20;;;;;;;12.10;7.80;;;;;;;;;;5039920;28;20450;-72
2023/08/08 04:31:46;;;;;;;11.10;7.80;;;;;;;;;;5038861;28;20450;-73
2023/08/08 04:34:14;;;;;;;9.97;7.90;;;;;;;;;;5039532;28;20473;-73
2023/08/08 04:36:41;;;;;;;10.17;8.13;;;;;;;;;;5038710;28;20458;-73
2023/08/08 04:39:07;;;;;;;10.90;8.40;;;;;;;;;;5038011;28;21191;-73
2023/08/08 04:41:34;;;;;;;10.60;8.43;;;;;;;;;;5038640;28;20557;-73
2023/08/08 04:44:00;;;;;;;13.30;8.10;;;;;;;;;;5040697;28;20460;-74
2023/08/08 04:46:26;;;;;;;11.40;8.53;;;;;;;;;;5040344;28;20509;-74
2023/08/08 04:48:53;;;;;;;17.20;8.20;;;;;;;;;;5040221;28;20486;-74
2023/08/08 04:51:21;;;;;;;11.97;7.80;;;;;;;;;;5034287;28;20859;-74
2023/08/08 04:53:47;;;;;;;13.27;9.33;;;;;;;;;;5039960;28;20980;-74
2023/08/08 04:56:13;;;;;;;10.80;9.00;;;;;;;;;;5037516;28;20505;-73
2023/08/08 04:58:40;;;;;;;12.60;9.20;;;;;;;;;;5038261;28;20801;-73
2023/08/08 05:01:08;;;;;;;11.60;8.60;;;;;;;;;;5035746;28;20554;-74
2023/08/08 05:03:35;;;;;;;13.63;9.13;;;;;;;;;;5037982;28;20461;-74
2023/08/08 05:06:01;;;;;;;10.30;8.27;;;;;;;;;;5030357;28;20664;-77
2023/08/08 05:08:29;;;;;;;8.43;7.53;;;;;;;;;;5036198;28;20519;-74
2023/08/08 05:10:55;;;;;;;9.67;8.40;;;;;;;;;;5029826;28;20476;-73
2023/08/08 05:13:22;;;;;;;8.67;7.40;;;;;;;;;;5035899;28;20724;-74
2023/08/08 05:15:48;;;;;;;9.87;8.10;;;;;;;;;;5043721;28;20545;-73
2023/08/08 05:18:14;;;;;;;9.40;7.33;;;;;;;;;;5042398;28;20484;-81
2023/08/08 05:20:41;;;;;;;9.13;7.43;;;;;;;;;;5043738;28;20541;-79
2023/08/08 05:23:07;;;;;;;11.27;7.00;;;;;;;;;;5044022;28;20501;-80
2023/08/08 05:25:35;;;;;;;8.90;7.50;;;;;;;;;;5040915;28;20473;-79
2023/08/08 05:28:02;;;;;;;9.47;7.20;;;;;;;;;;5043737;28;20540;-80
2023/08/08 05:30:29;;;;;;;10.17;7.27;;;;;;;;;;5038413;28;20457;-80
2023/08/08 05:32:55;;;;;;;12.00;7.27;;;;;;;;;;5037651;28;21042;-79
2023/08/08 05:35:21;;;;;;;10.67;8.60;;;;;;;;;;5039480;28;20465;-80
2023/08/08 05:37:48;;;;;;;9.47;8.40;;;;;;;;;;5037212;28;20450;-80
2023/08/08 05:40:14;;;;;;;10.27;8.30;;;;;;;;;;5038697;28;20561;-80
2023/08/08 05:42:42;;;;;;;11.70;8.20;;;;;;;;;;5036237;28;20504;-80
2023/08/08 05:45:09;;;;;;;10.63;9.00;;;;;;;;;;5036703;28;20529;-80
2023/08/08 05:47:35;;;;;;;12.87;8.40;;;;;;;;;;5037334;28;20541;-80
2023/08/08 05:50:02;;;;;;;10.00;7.93;;;;;;;;;;5036982;28;20464;-80
2023/08/08 05:52:28;;;;;;;11.30;9.27;;;;;;;;;;5036929;28;20489;-79
2023/08/08 05:54:54;;;;;;;10.17;8.60;;;;;;;;;;5042321;28;20473;-80
2023/08/08 05:57:21;;;;;;;8.07;7.27;;;;;;;;;;5042638;28;20485;-81
2023/08/08 05:59:50;;;;;;;9.70;7.83;;;;;;;;;;5038183;28;20525;-80
2023/08/08 06:02:16;;;;;;;9.77;7.40;;;;;;;;;;5033574;28;20455;-80
2023/08/08 06:04:43;;;;;;;8.50;7.63;;;;;;;;;;5038638;28;20453;-80
2023/08/08 06:07:09;;;;;;;7.70;6.03;;;;;;;;;;5038314;28;20526;-80
2023/08/08 06:09:37;;;;;;;8.50;6.30;;;;;;;;;;5035607;28;20459;-80
2023/08/08 06:12:03;;;;;;;10.57;5.73;;;;;;;;;;5038807;28;20471;-79
2023/08/08 06:14:31;;;;;;;8.83;5.83;;;;;;;;;;5035722;28;20489;-81
2023/08/08 06:16:59;;;;;;;5.57;4.77;;;;;;;;;;5039524;28;20454;-79
2023/08/08 06:19:26;;;;;;;6.67;4.90;;;;;;;;;;5042751;28;20488;-81
2023/08/08 06:21:52;;;;;;;8.93;4.97;;;;;;;;;;5039636;28;20497;-80
2023/08/08 06:24:18;;;;;;;9.43;5.50;;;;;;;;;;5039396;28;20552;-79
2023/08/08 06:26:45;;;;;;;8.23;5.30;;;;;;;;;;5040501;28;20546;-80
2023/08/08 06:29:13;;;;;;;14.30;5.10;;;;;;;;;;5042124;28;20513;-80
2023/08/08 06:31:40;;;;;;;7.90;5.90;;;;;;;;;;5042981;28;20465;-80
2023/08/08 06:34:07;;;;;;;6.90;5.30;;;;;;;;;;5042080;28;20553;-79
2023/08/08 06:36:34;;;;;;;7.10;5.53;;;;;;;;;;5041457;28;20460;-79
2023/08/08 06:39:00;;;;;;;8.33;5.07;;;;;;;;;;5043244;28;20480;-79
2023/08/08 06:41:26;;;;;;;6.60;5.70;;;;;;;;;;5038505;28;20529;-78
2023/08/08 06:43:53;;;;;;;11.90;5.40;;;;;;;;;;5041574;28;20454;-81
2023/08/08 06:46:20;;;;;;;10.93;5.80;;;;;;;;;;5042586;28;20528;-77
2023/08/08 06:48:47;;;;;;;6.43;5.70;;;;;;;;;;5034838;28;20455;-81
2023/08/08 06:51:15;;;;;;;6.60;6.00;;;;;;;;;;5040586;28;20450;-81
2023/08/08 06:53:41;;;;;;;10.20;6.33;;;;;;;;;;5038069;28;20473;-81
2023/08/08 06:56:08;;;;;;;8.93;5.60;;;;;;;;;;5042672;28;20446;-81
2023/08/08 06:58:34;;;;;;;7.73;5.80;;;;;;;;;;5040687;28;20469;-80
2023/08/08 07:01:01;;;;;;;7.40;6.67;;;;;;;;;;5042967;28;20470;-81
2023/08/08 07:03:27;;;;;;;10.20;7.17;;;;;;;;;;5041732;28;20472;-81
2023/08/08 07:05:53;;;;;;;11.10;7.47;;;;;;;;;;5041335;28;20485;-80
2023/08/08 07:08:21;;;;;;;8.40;7.50;;;;;;;;;;5041838;28;20801;-81
2023/08/08 07:10:48;;;;;;;8.60;7.70;;;;;;;;;;5042084;28;20454;-81
2023/08/08 07:13:15;;;;;;;9.50;8.33;;;;;;;;;;5040678;28;20557;-81
2023/08/08 07:15:41;;;;;;;10.13;8.13;;;;;;;;;;5042095;28;20482;-81
2023/08/08 07:18:08;;;;;;;10.93;8.20;;;;;;;;;;5043800;28;20496;-79
2023/08/08 07:20:34;;;;;;;11.10;8.87;;;;;;;;;;5037914;28;20482;-80
2023/08/08 07:23:01;;;;;;;11.13;8.47;;;;;;;;;;5041117;28;20457;-81
2023/08/08 07:25:29;;;;;;;10.23;9.10;;;;;;;;;;5041981;28;20531;-81
2023/08/08 07:27:55;;;;;;;13.60;9.93;;;;;;;;;;5041086;28;20464;-79
2023/08/08 07:30:22;;;;;;;14.60;9.50;;;;;;;;;;5041766;28;20477;-80
2023/08/08 07:32:48;;;;;;;13.00;9.67;;;;;;;;;;5041573;28;20486;-80
2023/08/08 07:35:15;;;;;;;14.67;9.13;;;;;;;;;;5041824;28;20469;-80
2023/08/08 07:37:41;;;;;;;11.83;8.73;;;;;;;;;;5040028;28;20458;-80
2023/08/08 07:40:14;;;;;;;13.30;9.87;;;;;;;;;;5042404;28;20489;-80
2023/08/08 07:42:42;;;;;;;14.53;11.07;;;;;;;;;;5040859;28;20478;-80
2023/08/08 07:45:09;;;;;;;12.83;10.13;;;;;;;;;;5041195;28;20469;-80
2023/08/08 07:47:35;;;;;;;11.77;10.67;;;;;;;;;;5041162;28;20461;-80
2023/08/08 07:50:02;;;;;;;13.07;11.77;;;;;;;;;;5041935;28;20470;-80
2023/08/08 07:52:29;;;;;;;14.47;11.20;;;;;;;;;;5040670;28;20492;-80
2023/08/08 07:54:55;;;;;;;11.40;10.30;;;;;;;;;;5041452;28;20477;-80
2023/08/08 07:57:21;;;;;;;15.90;11.67;;;;;;;;;;5041137;28;20481;-80
2023/08/08 07:59:49;;;;;;;12.90;11.60;;;;;;;;;;5040769;28;20488;-81
2023/08/08 08:02:15;;;;;;;11.60;10.13;;;;;;;;;;5040808;28;20463;-81
2023/08/08 08:04:42;;;;;;;10.70;9.57;;;;;;;;;;5041115;28;20535;-81
2023/08/08 08:07:09;;;;;;;11.07;9.77;;;;;;;;;;5040121;28;20525;-79
2023/08/08 08:09:35;;;;;;;10.33;8.77;;;;;;;;;;5041164;28;20449;-81
2023/08/08 08:12:01;;;;;;;9.60;8.30;;;;;;;;;;5040653;28;20962;-81
2023/08/08 08:14:28;;;;;;;13.70;11.13;;;;;;;;;;5040179;28;20511;-80
2023/08/08 08:16:55;;;;;;;13.53;12.07;;;;;;;;;;5040702;28;20477;-81
2023/08/08 08:19:22;;;;;;;15.00;13.37;;;;;;;;;;5039703;28;20525;-81
2023/08/08 08:21:48;;;;;;;14.17;12.83;;;;;;;;;;5039668;28;20525;-81
2023/08/08 08:24:15;;;;;;;15.73;12.50;;;;;;;;;;5038762;28;20453;-80
2023/08/08 08:26:41;;;;;;;14.50;13.07;;;;;;;;;;5030845;28;20517;-80
2023/08/08 08:29:08;;;;;;;19.07;14.07;;;;;;;;;;5040511;28;20458;-81
2023/08/08 08:31:34;;;;;;;16.07;14.53;;;;;;;;;;5041093;28;20489;-81
2023/08/08 08:34:02;;;;;;;18.77;15.30;;;;;;;;;;5040889;28;21065;-81
2023/08/08 08:36:29;;;;;;;18.10;16.30;;;;;;;;;;5033123;28;20482;-81
2023/08/08 08:38:55;;;;;;;22.13;15.73;;;;;;;;;;5040950;28;20485;-81
2023/08/08 08:41:26;;;;;;;14.90;13.33;;;;;;;;;;5039916;28;20569;-81
2023/08/08 08:43:52;;;;;;;15.20;12.60;;;;;;;;;;5039773;28;20453;-81
2023/08/08 08:46:21;;;;;;;13.43;11.10;;;;;;;;;;5040858;28;20521;-81
2023/08/08 08:48:48;;;;;;;11.53;10.33;;;;;;;;;;5043090;28;21282;-80
2023/08/08 08:51:16;;;;;;;12.07;8.33;;;;;;;;;;5043694;28;20488;-79
2023/08/08 08:53:43;;;;;;;9.30;8.50;;;;;;;;;;5035467;28;20470;-80
2023/08/08 08:56:09;;;;;;;10.87;7.97;;;;;;;;;;5044799;28;20488;-80
2023/08/08 08:58:35;;;;;;;11.97;8.67;;;;;;;;;;5043958;28;20604;-81
2023/08/08 09:01:02;;;;;;;11.17;10.03;;;;;;;;;;5044911;28;21222;-81
2023/08/08 09:03:28;;;;;;;10.70;9.50;;;;;;;;;;5044487;28;20489;-81
2023/08/08 09:05:55;;;;;;;12.10;10.17;;;;;;;;;;5043773;28;20596;-81
2023/08/08 09:08:23;;;;;;;11.30;10.20;;;;;;;;;;5043896;28;20536;-80
2023/08/08 09:10:50;;;;;;;13.10;10.80;;;;;;;;;;5044698;28;20484;-81
2023/08/08 09:13:17;;;;;;;12.53;10.10;;;;;;;;;;5043667;28;20512;-81
2023/08/08 09:15:43;;;;;;;15.70;10.97;;;;;;;;;;5044532;28;20457;-81
2023/08/08 09:18:09;;;;;;;15.07;10.60;;;;;;;;;;5042926;28;20453;-80
2023/08/08 09:20:36;;;;;;;14.30;10.33;;;;;;;;;;5043682;28;20497;-81
2023/08/08 09:23:02;;;;;;;12.80;9.53;;;;;;;;;;5044012;28;20453;-81
2023/08/08 09:25:30;;;;;;;9.30;7.60;;;;;;;;;;5044441;28;20453;-81
2023/08/08 09:27:56;;;;;;;10.37;7.60;;;;;;;;;;5043576;28;20560;-80
2023/08/08 09:30:23;;;;;;;8.63;6.03;;;;;;;;;;5044091;28;20469;-81
2023/08/08 09:32:49;;;;;;;8.27;6.47;;;;;;;;;;5044493;28;20513;-81
2023/08/08 09:35:16;;;;;;;7.53;6.50;;;;;;;;;;5043257;28;20450;-81
2023/08/08 09:37:43;;;;;;;8.30;6.47;;;;;;;;;;5043224;28;20461;-80
2023/08/08 09:40:11;;;;;;;9.60;6.70;;;;;;;;;;5042605;28;20448;-80
2023/08/08 09:42:40;;;;;;;8.37;6.30;;;;;;;;;;5042592;28;20453;-81
2023/08/08 09:45:09;;;;;;;8.10;5.20;;;;;;;;;;5043887;28;20513;-80
2023/08/08 09:47:36;;;;;;;7.53;5.13;;;;;;;;;;5043365;28;20493;-81
2023/08/08 09:50:04;;;;;;;8.83;5.10;;;;;;;;;;5043139;28;20449;-80
2023/08/08 09:52:31;;;;;;;3.93;3.60;;;;;;;;;;5043457;28;20540;-81
2023/08/08 09:54:58;;;;;;;8.00;4.30;;;;;;;;;;5040396;28;20484;-81
2023/08/08 09:57:24;;;;;;;4.07;3.30;;;;;;;;;;5042992;28;20529;-80
2023/08/08 09:59:56;;;;;;;8.30;3.93;;;;;;;;;;5042442;28;20453;-81
2023/08/08 10:02:22;;;;;;;9.10;3.97;;;;;;;;;;5043924;28;20533;-81
2023/08/08 10:04:49;;;;;;;8.97;3.80;;;;;;;;;;5042698;28;21087;-80
2023/08/08 10:07:15;;;;;;;5.37;3.60;;;;;;;;;;5042954;28;20529;-81
2023/08/08 10:09:42;;;;;;;7.83;4.20;;;;;;;;;;5043571;28;20460;-81
2023/08/08 10:12:09;;;;;;;4.80;3.83;;;;;;;;;;5042252;28;20473;-80
2023/08/08 10:14:36;;;;;;;6.80;3.37;;;;;;;;;;5037257;28;20481;-81
2023/08/08 10:17:05;;;;;;;5.90;3.77;;;;;;;;;;5043089;28;20450;-81
2023/08/08 10:19:31;;;;;;;3.87;2.90;;;;;;;;;;5042447;28;20465;-81
2023/08/08 10:21:59;;;;;;;5.13;3.07;;;;;;;;;;5042203;28;20481;-81
2023/08/08 10:24:25;;;;;;;8.40;3.40;;;;;;;;;;5042844;28;20462;-81
2023/08/08 10:26:52;;;;;;;5.10;3.17;;;;;;;;;;5041906;28;20576;-80
2023/08/08 10:29:19;;;;;;;4.30;3.00;;;;;;;;;;5043254;28;21012;-81
2023/08/08 10:31:52;;;;;;;5.10;2.83;;;;;;;;;;5042740;28;20482;-80
2023/08/08 10:34:20;;;;;;;5.40;2.80;;;;;;;;;;5039135;28;20463;-81
2023/08/08 10:36:50;;;;;;;6.00;2.30;;;;;;;;;;5037816;28;20457;-80
2023/08/08 10:39:18;;;;;;;4.03;2.93;;;;;;;;;;5039043;28;20448;-80
2023/08/08 10:41:45;;;;;;;5.00;2.63;;;;;;;;;;5041402;28;20462;-80
2023/08/08 10:44:12;;;;;;;4.73;2.63;;;;;;;;;;5039315;28;20492;-80
2023/08/08 10:46:41;;;;;;;8.17;2.47;;;;;;;;;;5042237;28;20528;-81
2023/08/08 10:49:07;;;;;;;8.63;2.87;;;;;;;;;;5034790;28;20493;-80
2023/08/08 10:51:36;;;;;;;5.60;2.60;;;;;;;;;;5040180;28;20461;-80
2023/08/08 10:54:04;;;;;;;4.67;2.60;;;;;;;;;;5036238;28;20540;-80
2023/08/08 10:56:31;;;;;;;8.77;3.17;;;;;;;;;;5040523;28;20529;-80
2023/08/08 10:58:57;;;;;;;3.87;2.50;;;;;;;;;;5042051;28;20521;-80
2023/08/08 11:01:25;;;;;;;3.30;2.33;;;;;;;;;;5042464;28;20572;-81
2023/08/08 11:03:52;;;;;;;3.30;2.30;;;;;;;;;;5041492;28;20530;-80
2023/08/08 11:06:19;;;;;;;3.83;2.10;;;;;;;;;;5042258;28;20452;-80
2023/08/08 11:08:47;;;;;;;3.43;2.13;;;;;;;;;;5040213;28;21014;-79
2023/08/08 11:11:13;;;;;;;4.40;1.93;;;;;;;;;;5040894;28;20517;-80
2023/08/08 11:13:40;;;;;;;3.67;1.73;;;;;;;;;;5042016;28;20527;-80
2023/08/08 11:16:08;;;;;;;2.80;1.50;;;;;;;;;;5041575;28;20457;-81
2023/08/08 11:18:34;;;;;;;6.77;2.37;;;;;;;;;;5040368;28;20465;-80
2023/08/08 11:21:00;;;;;;;3.80;1.77;;;;;;;;;;5042567;28;20489;-80
2023/08/08 11:23:27;;;;;;;2.70;2.03;;;;;;;;;;5041419;28;21289;-80
2023/08/08 11:25:55;;;;;;;3.20;1.83;;;;;;;;;;5041495;28;20478;-80
2023/08/08 11:28:22;;;;;;;2.27;1.70;;;;;;;;;;5040688;28;20549;-80
2023/08/08 11:30:48;;;;;;;4.27;1.63;;;;;;;;;;5037842;28;20528;-80
2023/08/08 11:33:15;;;;;;;3.67;1.80;;;;;;;;;;5040617;28;20466;-80
2023/08/08 11:35:48;;;;;;;5.03;1.90;;;;;;;;;;5041256;28;21428;-80
2023/08/08 11:38:15;;;;;;;2.47;1.90;;;;;;;;;;5038026;28;20516;-80
2023/08/08 11:40:42;;;;;;;3.27;2.00;;;;;;;;;;5040703;28;21033;-79
2023/08/08 11:43:11;;;;;;;1.90;1.40;;;;;;;;;;5041135;28;20462;-80
2023/08/08 11:45:38;;;;;;;1.93;1.60;;;;;;;;;;5034580;28;20817;-80
2023/08/08 11:48:04;;;;;;;2.37;1.70;;;;;;;;;;5040673;28;20569;-80
2023/08/08 11:50:31;;;;;;;5.20;1.80;;;;;;;;;;5041620;28;21053;-80
2023/08/08 11:52:57;;;;;;;5.60;1.80;;;;;;;;;;5040749;28;20659;-80
2023/08/08 11:55:28;;;;;;;2.20;1.60;;;;;;;;;;5041111;28;20501;-80
2023/08/08 11:57:56;;;;;;;6.23;1.73;;;;;;;;;;5036221;28;20541;-80
2023/08/08 12:00:27;;;;;;;4.07;1.97;;;;;;;;;;5039146;28;20484;-80
2023/08/08 12:02:54;;;;;;;5.90;1.80;;;;;;;;;;5040574;28;21087;-80
2023/08/08 12:05:22;;;;;;;3.23;1.77;;;;;;;;;;5041211;28;20464;-80
2023/08/08 12:07:50;;;;;;;4.50;1.93;;;;;;;;;;5040720;28;20978;-80
2023/08/08 12:10:19;;;;;;;3.20;1.50;;;;;;;;;;5040871;28;20456;-81
2023/08/08 12:12:46;;;;;;;3.67;1.80;;;;;;;;;;5040065;28;20497;-79
2023/08/08 12:15:13;;;;;;;5.20;1.80;;;;;;;;;;5041280;28;20467;-79
2023/08/08 12:17:40;;;;;;;3.70;1.60;;;;;;;;;;5039879;28;21120;-78
2023/08/08 12:20:09;;;;;;;2.93;1.23;;;;;;;;;;5041337;28;20513;-79
2023/08/08 12:22:35;;;;;;;3.03;1.57;;;;;;;;;;5040003;28;20954;-79
2023/08/08 12:25:02;;;;;;;1.93;1.40;;;;;;;;;;5040458;28;20492;-81
2023/08/08 12:27:30;;;;;;;3.37;1.40;;;;;;;;;;5040550;28;20516;-79
2023/08/08 12:29:56;;;;;;;4.00;2.03;;;;;;;;;;5041275;28;20533;-79
2023/08/08 12:32:23;;;;;;;1.50;1.30;;;;;;;;;;5033512;28;20520;-79
2023/08/08 12:34:51;;;;;;;3.40;1.40;;;;;;;;;;5040832;28;20456;-79
2023/08/08 12:37:17;;;;;;;4.20;1.57;;;;;;;;;;5040110;28;20458;-79
2023/08/08 12:39:44;;;;;;;4.93;2.40;;;;;;;;;;5039916;28;20492;-79
2023/08/08 12:42:10;;;;;;;4.43;1.70;;;;;;;;;;5040309;28;20453;-82
2023/08/08 12:44:37;;;;;;;3.13;1.20;;;;;;;;;;5040806;28;20494;-79
2023/08/08 12:47:03;;;;;;;4.40;1.50;;;;;;;;;;5037727;28;20549;-80
2023/08/08 12:49:30;;;;;;;3.70;1.60;;;;;;;;;;5040534;28;20458;-74
2023/08/08 12:51:57;;;;;;;2.37;1.37;;;;;;;;;;5039820;28;20545;-74
2023/08/08 12:54:24;;;;;;;2.87;1.33;;;;;;;;;;5040196;28;20477;-73
2023/08/08 12:56:50;;;;;;;3.30;1.13;;;;;;;;;;5040763;28;20568;-74
2023/08/08 12:59:17;;;;;;;2.50;1.40;;;;;;;;;;5037057;28;20465;-73
2023/08/08 13:01:43;;;;;;;4.27;1.20;;;;;;;;;;5040302;28;20458;-73
2023/08/08 13:04:10;;;;;;;3.73;1.23;;;;;;;;;;5034688;28;20530;-73
2023/08/08 13:06:37;;;;;;;3.20;1.30;;;;;;;;;;5038982;28;20971;-73
2023/08/08 13:09:05;;;;;;;2.50;1.20;;;;;;;;;;5037227;28;21451;-72
2023/08/08 13:11:31;;;;;;;3.13;1.20;;;;;;;;;;5038703;28;20477;-73
2023/08/08 13:13:58;;;;;;;1.83;1.30;;;;;;;;;;5039545;28;20493;-72
2023/08/08 13:16:24;;;;;;;3.20;1.60;;;;;;;;;;5036192;28;20566;-72
2023/08/08 13:18:51;;;;;;;2.03;1.20;;;;;;;;;;5039797;28;20486;-73
2023/08/08 13:21:17;;;;;;;2.27;1.33;;;;;;;;;;5039352;28;20536;-72
2023/08/08 13:23:43;;;;;;;3.40;1.00;;;;;;;;;;5038028;28;21016;-75
2023/08/08 13:26:11;;;;;;;2.17;1.17;;;;;;;;;;5038762;28;20468;-73
2023/08/08 13:28:38;;;;;;;1.97;1.00;;;;;;;;;;5036658;28;21002;-75
2023/08/08 13:31:06;;;;;;;1.93;1.07;;;;;;;;;;5040619;28;20449;-74
2023/08/08 13:33:34;;;;;;;3.73;1.33;;;;;;;;;;5040722;28;20470;-72
2023/08/08 13:36:00;;;;;;;3.40;1.20;;;;;;;;;;5039209;28;20966;-73
2023/08/08 13:38:27;;;;;;;6.90;1.60;;;;;;;;;;5038645;28;20553;-74
2023/08/08 13:40:54;;;;;;;1.43;1.20;;;;;;;;;;5042240;28;20451;-72
2023/08/08 13:43:23;;;;;;;2.63;1.37;;;;;;;;;;5038717;28;20469;-73
2023/08/08 13:45:49;;;;;;;3.33;1.23;;;;;;;;;;5041878;28;20472;-72
2023/08/08 13:48:16;;;;;;;2.60;1.00;;;;;;;;;;5040623;28;20489;-73
2023/08/08 13:50:42;;;;;;;2.33;1.10;;;;;;;;;;5040852;28;20450;-72
2023/08/08 13:53:08;;;;;;;2.87;1.40;;;;;;;;;;5033583;28;20963;-74
2023/08/08 13:55:39;;;;;;;3.30;1.47;;;;;;;;;;5035625;28;20453;-68
2023/08/08 13:58:06;;;;;;;1.70;1.20;;;;;;;;;;5041876;28;20511;-71
2023/08/08 14:00:34;;;;;;;2.43;1.47;;;;;;;;;;5042036;28;20488;-70
2023/08/08 14:03:01;;;;;;;4.43;1.30;;;;;;;;;;5041796;28;20457;-71
2023/08/08 14:05:28;;;;;;;3.07;1.40;;;;;;;;;;5039586;28;20450;-70
2023/08/08 14:07:55;;;;;;;2.63;1.53;;;;;;;;;;5040268;28;20542;-70
2023/08/08 14:10:21;;;;;;;2.40;1.50;;;;;;;;;;5035590;28;21052;-69
2023/08/08 14:12:47;;;;;;;3.10;1.63;;;;;;;;;;5042338;28;20496;-70
2023/08/08 14:15:14;;;;;;;2.60;1.60;;;;;;;;;;5041655;28;20505;-70
2023/08/08 14:17:42;;;;;;;4.10;1.50;;;;;;;;;;5039878;28;20466;-70
2023/08/08 14:20:09;;;;;;;2.97;1.47;;;;;;;;;;5036213;28;20885;-69
2023/08/08 14:22:36;;;;;;;1.90;1.30;;;;;;;;;;5033193;28;21319;-70
2023/08/08 14:25:02;;;;;;;1.60;1.37;;;;;;;;;;5041243;28;20484;-70
2023/08/08 14:27:29;;;;;;;2.77;1.40;;;;;;;;;;5038880;28;20812;-70
2023/08/08 14:29:55;;;;;;;2.67;1.23;;;;;;;;;;5039385;28;20488;-70
2023/08/08 14:32:21;;;;;;;3.17;1.57;;;;;;;;;;5032996;28;20454;-71
2023/08/08 14:34:49;;;;;;;3.00;1.50;;;;;;;;;;5038489;28;20465;-70
2023/08/08 14:37:16;;;;;;;1.13;0.90;;;;;;;;;;5040966;28;20489;-70